createdAt,value
2019-03-31T00:01:51.148Z,8.50
2019-03-31T00:04:22.350Z,8.10
2019-03-31T00:06:54.287Z,8.10
2019-03-31T00:09:26.200Z,8.30
2019-03-31T00:11:57.704Z,8.00
2019-03-31T00:14:28.661Z,7.90
2019-03-31T00:16:59.198Z,8.00
2019-03-31T00:19:30.697Z,8.00
2019-03-31T00:22:02.159Z,7.80
2019-03-31T00:24:34.325Z,8.10
2019-03-31T00:27:05.188Z,8.00
2019-03-31T00:29:35.723Z,7.70
2019-03-31T00:32:06.555Z,7.60
2019-03-31T00:34:37.494Z,7.70
2019-03-31T00:39:50.676Z,7.70
2019-03-31T00:42:23.902Z,7.50
2019-03-31T00:44:56.176Z,7.70
2019-03-31T00:47:28.430Z,7.70
2019-03-31T00:50:01.496Z,7.50
2019-03-31T00:52:32.558Z,7.60
2019-03-31T00:55:04.100Z,7.80
2019-03-31T00:57:35.156Z,7.80
2019-03-31T01:00:07.110Z,7.50
2019-03-31T01:02:41.852Z,7.70
2019-03-31T01:05:13.479Z,8.00
2019-03-31T01:07:45.305Z,7.80
2019-03-31T01:10:18.138Z,7.80
2019-03-31T01:12:49.826Z,7.70
2019-03-31T01:15:23.349Z,7.70
2019-03-31T01:17:54.953Z,7.40
2019-03-31T01:20:28.940Z,7.40
2019-03-31T01:22:59.912Z,7.70
2019-03-31T01:25:31.041Z,7.60
2019-03-31T01:28:02.248Z,7.40
2019-03-31T01:30:34.229Z,7.60
2019-03-31T01:33:07.243Z,7.40
2019-03-31T01:35:38.129Z,7.70
2019-03-31T01:38:09.055Z,7.20
2019-03-31T01:40:39.933Z,7.30
2019-03-31T01:43:12.239Z,7.40
2019-03-31T01:45:44.916Z,7.20
2019-03-31T01:48:17.995Z,7.50
2019-03-31T01:50:49.252Z,7.40
2019-03-31T01:53:20.706Z,7.60
2019-03-31T01:55:51.956Z,7.30
2019-03-31T01:58:22.848Z,7.40
2019-03-31T02:01:00.028Z,7.40
2019-03-31T02:03:32.272Z,7.10
2019-03-31T02:06:04.659Z,7.20
2019-03-31T02:08:35.973Z,7.10
2019-03-31T02:11:07.863Z,7.20
2019-03-31T02:13:38.848Z,7.40
2019-03-31T02:16:10.427Z,7.10
2019-03-31T02:18:41.578Z,7.30
2019-03-31T02:21:13.961Z,7.30
2019-03-31T02:23:46.263Z,7.30
2019-03-31T02:26:18.375Z,6.80
2019-03-31T02:28:50.194Z,6.70
2019-03-31T02:31:21.407Z,6.60
2019-03-31T02:33:52.656Z,6.50
2019-03-31T02:36:25.194Z,6.50
2019-03-31T02:38:57.195Z,6.60
2019-03-31T02:41:28.746Z,6.40
2019-03-31T02:44:02.177Z,6.50
2019-03-31T02:46:33.091Z,6.20
2019-03-31T02:49:05.022Z,6.20
2019-03-31T02:51:36.526Z,6.20
2019-03-31T02:54:07.410Z,6.20
2019-03-31T02:56:40.433Z,6.20
2019-03-31T02:59:14.086Z,6.20
2019-03-31T03:01:47.103Z,6.20
2019-03-31T03:04:20.523Z,6.50
2019-03-31T03:06:54.372Z,6.50
2019-03-31T03:09:28.862Z,6.30
2019-03-31T03:12:01.254Z,6.70
2019-03-31T03:14:35.249Z,6.40
2019-03-31T03:17:08.110Z,6.70
2019-03-31T03:19:39.285Z,6.60
2019-03-31T03:22:10.197Z,6.70
2019-03-31T03:24:41.847Z,6.30
2019-03-31T03:27:13.076Z,6.40
2019-03-31T03:29:44.129Z,6.30
2019-03-31T03:32:15.685Z,6.10
2019-03-31T03:34:46.547Z,6.40
2019-03-31T03:37:17.769Z,6.10
2019-03-31T03:39:49.010Z,6.20
2019-03-31T03:42:20.484Z,6.00
2019-03-31T03:44:51.443Z,6.00
2019-03-31T03:47:22.468Z,5.90
2019-03-31T03:49:54.163Z,5.80
2019-03-31T03:52:26.789Z,5.60
2019-03-31T03:54:57.661Z,5.60
2019-03-31T03:57:28.868Z,5.80
2019-03-31T04:00:01.219Z,5.60
2019-03-31T04:02:32.168Z,5.70
2019-03-31T04:05:03.025Z,5.50
2019-03-31T04:07:34.205Z,5.60
2019-03-31T04:10:09.042Z,5.30
2019-03-31T04:12:40.111Z,5.50
2019-03-31T04:15:11.378Z,5.40
2019-03-31T04:17:42.291Z,5.30
2019-03-31T04:20:13.444Z,5.40
2019-03-31T04:22:44.640Z,5.20
2019-03-31T04:25:16.022Z,5.50
2019-03-31T04:27:46.912Z,5.60
2019-03-31T04:30:17.782Z,5.70
2019-03-31T04:32:48.664Z,5.80
2019-03-31T04:35:19.829Z,5.80
2019-03-31T04:37:52.094Z,5.50
2019-03-31T04:40:23.334Z,5.60
2019-03-31T04:42:54.245Z,5.30
2019-03-31T04:45:25.066Z,5.70
2019-03-31T04:47:55.962Z,5.50
2019-03-31T04:50:26.905Z,5.80
2019-03-31T04:52:58.143Z,5.60
2019-03-31T04:55:31.809Z,5.60
2019-03-31T04:58:03.022Z,5.90
2019-03-31T05:00:33.932Z,5.70
2019-03-31T05:03:05.279Z,5.70
2019-03-31T05:05:37.553Z,5.60
2019-03-31T05:08:08.797Z,5.90
2019-03-31T05:10:39.706Z,5.90
2019-03-31T05:13:13.479Z,5.60
2019-03-31T05:15:46.424Z,5.90
2019-03-31T05:18:18.184Z,5.80
2019-03-31T05:20:49.065Z,5.90
2019-03-31T05:23:20.265Z,6.10
2019-03-31T05:25:52.398Z,6.10
2019-03-31T05:28:23.680Z,6.20
2019-03-31T05:30:57.344Z,6.10
2019-03-31T05:33:28.533Z,6.10
2019-03-31T05:35:59.780Z,6.10
2019-03-31T05:38:32.804Z,6.10
2019-03-31T05:41:03.951Z,6.40
2019-03-31T05:43:34.867Z,6.20
2019-03-31T05:46:06.370Z,6.20
2019-03-31T05:48:37.700Z,6.40
2019-03-31T05:51:08.532Z,6.40
2019-03-31T05:53:39.442Z,6.80
2019-03-31T05:56:10.404Z,6.90
2019-03-31T05:58:43.119Z,7.70
2019-03-31T06:01:14.296Z,8.90
2019-03-31T06:03:45.554Z,10.50
2019-03-31T06:06:16.438Z,12.00
2019-03-31T06:08:47.334Z,13.50
2019-03-31T06:11:18.201Z,14.90
2019-03-31T06:13:50.651Z,15.60
2019-03-31T06:16:21.550Z,16.50
2019-03-31T06:18:52.825Z,17.40
2019-03-31T06:21:24.074Z,18.10
2019-03-31T06:23:55.345Z,18.50
2019-03-31T06:26:28.058Z,18.70
2019-03-31T06:28:59.245Z,18.60
2019-03-31T06:31:30.125Z,18.70
2019-03-31T06:34:01.076Z,18.50
2019-03-31T06:36:32.268Z,18.10
2019-03-31T06:39:05.460Z,18.10
2019-03-31T06:41:36.705Z,17.80
2019-03-31T06:44:07.992Z,17.90
2019-03-31T06:46:41.878Z,18.60
2019-03-31T06:49:12.771Z,19.20
2019-03-31T06:51:43.652Z,19.00
2019-03-31T06:54:14.981Z,18.30
2019-03-31T06:56:47.256Z,17.70
2019-03-31T06:59:19.288Z,17.30
2019-03-31T07:01:50.569Z,17.50
2019-03-31T07:04:22.150Z,18.00
2019-03-31T07:06:53.366Z,18.30
2019-03-31T07:09:24.326Z,19.30
2019-03-31T07:11:56.572Z,19.60
2019-03-31T07:14:28.818Z,19.80
2019-03-31T07:16:59.671Z,20.10
2019-03-31T07:19:30.520Z,20.40
2019-03-31T07:22:02.080Z,20.70
2019-03-31T07:24:33.294Z,21.10
2019-03-31T07:27:04.575Z,21.20
2019-03-31T07:29:37.239Z,21.00
2019-03-31T07:32:08.122Z,20.10
2019-03-31T07:34:39.061Z,19.70
2019-03-31T07:37:11.649Z,19.40
2019-03-31T07:39:45.957Z,18.80
2019-03-31T07:42:16.283Z,18.60
2019-03-31T07:44:47.492Z,18.30
2019-03-31T07:47:19.092Z,18.50
2019-03-31T07:49:50.402Z,18.30
2019-03-31T07:52:21.707Z,18.80
2019-03-31T07:54:54.904Z,20.00
2019-03-31T07:57:27.534Z,20.60
2019-03-31T08:00:00.954Z,21.10
2019-03-31T08:02:33.602Z,21.40
2019-03-31T08:05:05.318Z,21.90
2019-03-31T08:07:37.665Z,21.70
2019-03-31T08:10:10.049Z,21.30
2019-03-31T08:12:41.357Z,21.40
2019-03-31T08:15:12.694Z,21.10
2019-03-31T08:17:43.956Z,20.20
2019-03-31T08:20:16.302Z,21.30
2019-03-31T08:22:47.885Z,22.50
2019-03-31T08:25:20.359Z,24.10
2019-03-31T08:27:53.124Z,24.30
2019-03-31T08:30:24.394Z,24.80
2019-03-31T08:32:57.191Z,25.30
2019-03-31T08:35:28.238Z,25.30
2019-03-31T08:37:59.566Z,25.10
2019-03-31T08:40:32.666Z,24.30
2019-03-31T08:43:05.289Z,23.20
2019-03-31T08:45:36.718Z,22.20
2019-03-31T08:48:07.741Z,20.70
2019-03-31T08:50:40.389Z,19.80
2019-03-31T08:53:12.206Z,19.20
2019-03-31T08:55:43.276Z,19.20
2019-03-31T08:58:14.653Z,20.00
2019-03-31T09:00:53.581Z,20.40
2019-03-31T09:03:24.791Z,21.30
2019-03-31T09:06:02.200Z,22.10
2019-03-31T09:08:28.415Z,22.20
2019-03-31T09:10:59.592Z,21.70
2019-03-31T09:13:30.836Z,21.10
2019-03-31T09:16:01.751Z,19.70
2019-03-31T09:18:33.070Z,19.30
2019-03-31T09:21:04.047Z,19.70
2019-03-31T09:23:34.961Z,20.00
2019-03-31T09:26:05.866Z,20.10
2019-03-31T09:28:36.790Z,20.20
2019-03-31T09:31:07.774Z,19.70
2019-03-31T09:33:39.562Z,19.60
2019-03-31T09:36:16.341Z,19.20
2019-03-31T09:38:43.637Z,19.00
2019-03-31T09:41:16.111Z,18.80
2019-03-31T09:43:47.425Z,18.40
2019-03-31T09:46:18.366Z,18.50
2019-03-31T09:48:49.333Z,18.30
2019-03-31T09:51:20.615Z,18.80
2019-03-31T09:53:51.809Z,18.60
2019-03-31T09:56:22.676Z,18.40
2019-03-31T09:58:54.199Z,18.60
2019-03-31T10:01:25.021Z,18.70
2019-03-31T10:03:56.343Z,18.90
2019-03-31T10:06:30.354Z,19.10
2019-03-31T10:09:01.012Z,19.40
2019-03-31T10:11:34.846Z,19.60
2019-03-31T10:14:05.835Z,20.00
2019-03-31T10:16:36.808Z,19.80
2019-03-31T10:19:07.971Z,19.80
2019-03-31T10:21:40.755Z,20.20
2019-03-31T10:24:12.949Z,20.00
2019-03-31T10:26:45.815Z,20.40
2019-03-31T10:29:16.852Z,20.90
2019-03-31T10:31:47.861Z,21.50
2019-03-31T10:34:19.458Z,21.40
2019-03-31T10:36:52.161Z,21.30
2019-03-31T10:39:23.530Z,21.60
2019-03-31T10:41:55.921Z,21.50
2019-03-31T10:44:27.193Z,21.20
2019-03-31T10:46:58.585Z,21.00
2019-03-31T10:49:29.596Z,21.70
2019-03-31T10:52:00.936Z,21.80
2019-03-31T10:54:37.600Z,21.20
2019-03-31T10:57:08.504Z,21.00
2019-03-31T10:59:39.509Z,20.80
2019-03-31T11:02:11.828Z,20.90
2019-03-31T11:04:42.773Z,20.90
2019-03-31T11:07:13.730Z,21.40
2019-03-31T11:09:45.118Z,21.50
2019-03-31T11:12:15.959Z,21.10
2019-03-31T11:14:46.902Z,21.00
2019-03-31T11:17:18.455Z,20.70
2019-03-31T11:19:51.001Z,20.70
2019-03-31T11:22:26.478Z,21.20
2019-03-31T11:24:58.372Z,20.80
2019-03-31T11:27:30.987Z,20.90
2019-03-31T11:30:03.356Z,20.70
2019-03-31T11:32:34.720Z,20.30
2019-03-31T11:35:09.083Z,20.30
2019-03-31T11:37:39.950Z,20.40
2019-03-31T11:40:11.278Z,20.50
2019-03-31T11:42:42.132Z,20.70
2019-03-31T11:45:13.725Z,21.40
2019-03-31T11:47:44.724Z,21.40
2019-03-31T11:50:17.673Z,21.40
2019-03-31T11:52:50.646Z,21.70
2019-03-31T11:55:21.876Z,21.30
2019-03-31T11:57:55.736Z,21.10
2019-03-31T12:00:29.793Z,20.80
2019-03-31T12:03:01.718Z,20.00
2019-03-31T12:05:33.723Z,19.40
2019-03-31T12:08:05.110Z,19.40
2019-03-31T12:10:36.351Z,19.80
2019-03-31T12:13:09.225Z,20.40
2019-03-31T12:15:40.237Z,21.30
2019-03-31T12:18:12.967Z,21.70
2019-03-31T12:20:44.015Z,21.90
2019-03-31T12:23:15.343Z,21.70
2019-03-31T12:25:46.948Z,22.00
2019-03-31T12:28:17.836Z,22.90
2019-03-31T12:30:49.069Z,23.40
2019-03-31T12:33:19.976Z,23.90
2019-03-31T12:35:50.873Z,23.30
2019-03-31T12:38:23.607Z,23.10
2019-03-31T12:40:55.638Z,22.80
2019-03-31T12:43:26.948Z,22.00
2019-03-31T12:45:58.182Z,21.60
2019-03-31T12:48:31.561Z,21.40
2019-03-31T12:51:03.941Z,20.90
2019-03-31T12:53:34.838Z,20.70
2019-03-31T12:56:06.132Z,20.60
2019-03-31T12:58:40.326Z,20.50
2019-03-31T13:01:11.269Z,20.00
2019-03-31T13:03:42.737Z,20.00
2019-03-31T13:06:14.092Z,19.60
2019-03-31T13:08:45.414Z,19.60
2019-03-31T13:11:16.707Z,19.60
2019-03-31T13:13:47.941Z,19.40
2019-03-31T13:16:20.767Z,19.40
2019-03-31T13:18:52.008Z,19.40
2019-03-31T13:21:23.309Z,18.90
2019-03-31T13:23:54.223Z,19.30
2019-03-31T13:26:26.696Z,19.20
2019-03-31T13:28:59.818Z,19.80
2019-03-31T13:31:33.123Z,19.90
2019-03-31T13:34:06.449Z,20.30
2019-03-31T13:36:37.776Z,19.50
2019-03-31T13:39:09.327Z,19.80
2019-03-31T13:41:40.558Z,19.30
2019-03-31T13:44:13.112Z,18.90
2019-03-31T13:46:44.012Z,18.60
2019-03-31T13:49:14.971Z,18.50
2019-03-31T13:51:47.205Z,18.50
2019-03-31T13:54:18.425Z,18.50
2019-03-31T13:56:50.242Z,19.00
2019-03-31T13:59:21.673Z,19.00
2019-03-31T14:01:53.334Z,18.90
2019-03-31T14:04:24.544Z,19.10
2019-03-31T14:06:55.569Z,19.80
2019-03-31T14:09:26.582Z,19.70
2019-03-31T14:11:57.858Z,19.20
2019-03-31T14:14:28.995Z,19.00
2019-03-31T14:17:01.628Z,19.10
2019-03-31T14:19:32.470Z,18.80
2019-03-31T14:22:03.682Z,19.10
2019-03-31T14:24:34.836Z,18.40
2019-03-31T14:27:07.300Z,18.30
2019-03-31T14:29:38.242Z,18.30
2019-03-31T14:32:09.243Z,18.00
2019-03-31T14:34:40.072Z,18.10
2019-03-31T14:37:11.001Z,18.50
2019-03-31T14:39:43.224Z,18.90
2019-03-31T14:42:14.152Z,19.00
2019-03-31T14:44:45.021Z,18.90
2019-03-31T14:47:16.341Z,18.80
2019-03-31T14:49:47.941Z,18.80
2019-03-31T14:52:27.238Z,18.80
2019-03-31T14:54:55.893Z,18.80
2019-03-31T14:57:26.359Z,18.70
2019-03-31T14:59:57.260Z,18.90
2019-03-31T15:02:28.381Z,19.10
2019-03-31T15:05:00.998Z,19.00
2019-03-31T15:07:32.264Z,18.90
2019-03-31T15:10:03.157Z,18.80
2019-03-31T15:12:35.732Z,18.40
2019-03-31T15:15:06.963Z,18.50
2019-03-31T15:17:38.436Z,18.30
2019-03-31T15:20:10.045Z,18.20
2019-03-31T15:22:41.291Z,18.50
2019-03-31T15:25:13.228Z,18.50
2019-03-31T15:27:44.092Z,18.40
2019-03-31T15:30:15.611Z,18.50
2019-03-31T15:32:46.538Z,18.20
2019-03-31T15:35:17.831Z,18.10
2019-03-31T15:37:48.737Z,18.20
2019-03-31T15:40:20.016Z,18.20
2019-03-31T15:42:51.361Z,18.40
2019-03-31T15:45:24.359Z,18.30
2019-03-31T15:47:55.272Z,18.20
2019-03-31T15:50:27.791Z,18.40
2019-03-31T15:52:58.790Z,18.00
2019-03-31T15:55:31.153Z,18.40
2019-03-31T15:58:05.168Z,18.00
2019-03-31T16:00:34.690Z,17.90
2019-03-31T16:03:06.476Z,17.70
2019-03-31T16:05:37.955Z,17.90
2019-03-31T16:08:08.680Z,17.70
2019-03-31T16:10:39.504Z,18.00
2019-03-31T16:13:13.305Z,17.80
2019-03-31T16:15:43.689Z,18.00
2019-03-31T16:18:14.523Z,17.60
2019-03-31T16:20:46.117Z,17.20
2019-03-31T16:23:17.984Z,17.40
2019-03-31T16:25:56.405Z,17.60
2019-03-31T16:28:28.153Z,17.30
2019-03-31T16:30:58.782Z,17.40
2019-03-31T16:33:29.618Z,17.40
2019-03-31T16:36:00.457Z,17.20
2019-03-31T16:38:35.819Z,17.20
2019-03-31T16:41:06.184Z,17.00
2019-03-31T16:43:36.907Z,17.10
2019-03-31T16:46:07.692Z,17.10
2019-03-31T16:48:38.944Z,17.30
2019-03-31T16:51:09.382Z,16.90
2019-03-31T16:53:40.030Z,17.00
2019-03-31T16:56:10.735Z,16.90
2019-03-31T16:58:41.795Z,16.80
2019-03-31T17:01:12.888Z,17.20
2019-03-31T17:03:46.423Z,16.80
2019-03-31T17:06:18.774Z,16.70
2019-03-31T17:08:49.162Z,16.60
2019-03-31T17:11:21.577Z,16.70
2019-03-31T17:13:52.530Z,16.40
2019-03-31T17:16:22.884Z,16.70
2019-03-31T17:18:54.508Z,16.50
2019-03-31T17:21:25.493Z,16.50
2019-03-31T17:23:57.669Z,16.30
2019-03-31T17:26:28.476Z,16.30
2019-03-31T17:28:59.291Z,16.10
2019-03-31T17:31:31.085Z,16.30
2019-03-31T17:34:01.633Z,16.10
2019-03-31T17:36:32.846Z,15.90
2019-03-31T17:39:05.598Z,15.80
2019-03-31T17:41:39.439Z,15.90
2019-03-31T17:44:10.198Z,15.90
2019-03-31T17:46:43.498Z,15.50
2019-03-31T17:49:18.100Z,15.50
2019-03-31T17:51:50.342Z,15.70
2019-03-31T17:54:21.203Z,15.50
2019-03-31T17:56:54.686Z,15.20
2019-03-31T17:59:25.240Z,15.20
2019-03-31T18:01:58.053Z,15.30
2019-03-31T18:04:28.520Z,15.20
2019-03-31T18:06:58.894Z,15.00
2019-03-31T18:09:30.012Z,15.10
2019-03-31T18:12:01.240Z,15.00
2019-03-31T18:14:32.235Z,15.10
2019-03-31T18:17:02.978Z,15.00
2019-03-31T18:19:35.610Z,14.70
2019-03-31T18:22:16.373Z,14.70
2019-03-31T18:24:39.648Z,14.60
2019-03-31T18:27:10.382Z,14.40
2019-03-31T18:29:41.106Z,14.50
2019-03-31T18:32:11.842Z,14.30
2019-03-31T18:34:42.615Z,14.50
2019-03-31T18:37:14.010Z,14.20
2019-03-31T18:39:44.868Z,14.20
2019-03-31T18:42:15.634Z,14.20
2019-03-31T18:44:48.029Z,14.20
2019-03-31T18:47:18.435Z,14.20
2019-03-31T18:49:48.833Z,14.30
2019-03-31T18:52:20.479Z,14.20
2019-03-31T18:55:01.359Z,14.10
2019-03-31T18:58:00.034Z,14.10
2019-03-31T19:00:55.712Z,13.80
2019-03-31T19:03:52.369Z,13.80
2019-03-31T19:06:38.069Z,13.60
2019-03-31T19:09:37.675Z,14.00
2019-03-31T19:12:33.016Z,13.50
2019-03-31T19:15:22.813Z,13.40
2019-03-31T19:18:24.483Z,13.60
2019-03-31T19:21:11.794Z,13.40
2019-03-31T19:23:59.110Z,13.40
2019-03-31T19:26:52.538Z,13.20
2019-03-31T19:29:42.513Z,13.20
2019-03-31T19:32:19.852Z,13.10
2019-03-31T19:35:01.504Z,13.10
2019-03-31T19:38:03.510Z,13.30
2019-03-31T19:41:03.256Z,13.10
2019-03-31T19:43:49.315Z,13.00
2019-03-31T19:46:50.968Z,12.90
2019-03-31T19:49:32.328Z,12.70
2019-03-31T19:52:38.345Z,12.70
2019-03-31T19:55:27.856Z,13.00
2019-03-31T19:58:24.172Z,12.80
2019-03-31T20:01:12.785Z,12.90
2019-03-31T20:04:21.922Z,12.50
2019-03-31T20:07:11.842Z,12.40
2019-03-31T20:09:51.577Z,12.50
2019-03-31T20:12:41.225Z,12.40
2019-03-31T20:15:36.169Z,12.50
2019-03-31T20:18:25.753Z,12.30
2019-03-31T20:21:12.000Z,12.20
2019-03-31T20:23:48.958Z,12.20
2019-03-31T20:26:36.914Z,12.20
2019-03-31T20:29:20.823Z,12.10
2019-03-31T20:32:13.289Z,12.10
2019-03-31T20:35:09.093Z,12.10
2019-03-31T20:37:49.153Z,12.20
2019-03-31T20:40:41.313Z,11.80
2019-03-31T20:43:36.509Z,12.00
2019-03-31T20:46:07.375Z,11.90
2019-03-31T20:48:39.068Z,11.80
2019-03-31T20:51:09.764Z,11.80
2019-03-31T20:53:40.611Z,11.70
2019-03-31T20:56:11.304Z,12.00
2019-03-31T20:58:42.429Z,11.70
2019-03-31T21:01:14.472Z,11.70
2019-03-31T21:03:46.202Z,11.80
2019-03-31T21:06:16.648Z,11.90
2019-03-31T21:08:47.019Z,11.90
2019-03-31T21:11:19.270Z,11.80
2019-03-31T21:13:52.566Z,12.00
2019-03-31T21:16:22.916Z,12.10
2019-03-31T21:18:53.305Z,11.90
2019-03-31T21:21:26.123Z,12.00
2019-03-31T21:24:01.934Z,11.90
2019-03-31T21:26:34.120Z,11.80
2019-03-31T21:29:04.475Z,11.70
2019-03-31T21:31:35.167Z,11.70
2019-03-31T21:34:07.299Z,12.00
2019-03-31T21:36:37.657Z,11.80
2019-03-31T21:39:10.740Z,11.70
2019-03-31T21:41:42.492Z,11.70
2019-03-31T21:44:13.832Z,11.70
2019-03-31T21:46:44.578Z,11.70
2019-03-31T21:49:15.311Z,11.70
2019-03-31T21:51:46.097Z,12.00
2019-03-31T21:54:16.811Z,11.60
2019-03-31T21:56:47.527Z,11.40
2019-03-31T21:59:18.936Z,11.80
2019-03-31T22:01:49.593Z,11.20
2019-03-31T22:04:20.022Z,11.40
2019-03-31T22:06:50.373Z,11.70
2019-03-31T22:09:20.981Z,11.30
2019-03-31T22:11:52.477Z,11.30
2019-03-31T22:14:22.861Z,11.20
2019-03-31T22:16:53.612Z,11.30
2019-03-31T22:19:25.273Z,11.10
2019-03-31T22:21:55.749Z,11.00
2019-03-31T22:24:26.104Z,10.90
2019-03-31T22:26:57.860Z,11.30
2019-03-31T22:29:28.514Z,11.00
2019-03-31T22:31:58.921Z,11.00
2019-03-31T22:34:29.507Z,11.10
2019-03-31T22:37:00.286Z,10.90
2019-03-31T22:39:30.648Z,11.00
2019-03-31T22:42:01.360Z,10.80
2019-03-31T22:44:31.722Z,10.80
2019-03-31T22:47:04.261Z,10.60
2019-03-31T22:49:35.222Z,10.60
2019-03-31T22:52:06.357Z,10.40
2019-03-31T22:54:36.993Z,10.60
2019-03-31T22:57:07.815Z,10.60
2019-03-31T22:59:38.544Z,10.50
2019-03-31T23:02:09.285Z,10.60
2019-03-31T23:04:40.042Z,10.30
2019-03-31T23:07:10.804Z,10.30
2019-03-31T23:09:41.155Z,10.50
2019-03-31T23:12:11.811Z,10.60
2019-03-31T23:14:42.537Z,10.10
2019-03-31T23:17:12.940Z,10.30
2019-03-31T23:19:43.597Z,10.10
2019-03-31T23:22:15.562Z,10.40
2019-03-31T23:24:46.998Z,10.20
2019-03-31T23:27:17.750Z,10.20
2019-03-31T23:29:48.499Z,10.20
2019-03-31T23:32:18.864Z,10.10
2019-03-31T23:34:51.081Z,10.30
2019-03-31T23:37:21.485Z,9.90
2019-03-31T23:39:51.860Z,10.20
2019-03-31T23:42:22.426Z,9.90
2019-03-31T23:44:52.740Z,9.80
2019-03-31T23:47:23.805Z,9.40
2019-03-31T23:49:54.176Z,9.80
2019-03-31T23:52:26.708Z,9.60
2019-03-31T23:54:57.369Z,9.90
2019-03-31T23:57:41.723Z,9.50
